Terminal Aerodrome Forecast
Issued by NWS Charleston, WV

Current Version | Previous Version | Graphics & Text | Print | Product List | Glossary On
Versions: 1 2 3 4 5 6 7 8 9 10 11 12 13 14 15 16 17 18 19 20 21 22 23 24 25 26
000
FTUS41 KRLX 232332
TAFEKN
TAF
KEKN 232332Z 2400/2424 22008G15KT P6SM BKN035
     FM240200 22007KT 6SM -SHRA OVC030
     FM240300 20004KT P6SM OVC025
      TEMPO 2403/2405 2SM -SHRA OVC015
     FM240500 22005KT 2SM -SHRA OVC012
     FM240800 26006KT 2SM SHRA OVC008
     FM241000 28006KT 4SM SHRA OVC010
     FM241200 29006KT P6SM BKN008
     FM241700 28007KT P6SM SCT025=

USA.gov is the U.S. government's official web portal to all federal, state and local government web resources and services.